Time;durP1;ratioP1;P1;durP2;ratioP2;P2;SDS_P1;SDS_P2;PMS_P1;PMS_P2;Temp;Humidity;BMP_temperature;BMP_pressure;BME280_temperature;BME280_humidity;BME280_pressure;Samples;Min_cycle;Max_cycle;Signal;HPM_P1;HPM_P2
2024/01/27 00:01:37;;;;;;;1.67;1.43;;;3.80;98.20;;;;;;5015912;28;20490;-79
2024/01/27 00:04:04;;;;;;;1.63;1.43;;;3.80;98.20;;;;;;5033708;28;20465;-78
2024/01/27 00:06:30;;;;;;;1.67;1.40;;;3.70;98.20;;;;;;5018178;28;20494;-79
2024/01/27 00:08:57;;;;;;;1.60;1.33;;;3.70;98.20;;;;;;5026758;28;20468;-78
2024/01/27 00:11:25;;;;;;;1.70;1.40;;;3.70;98.20;;;;;;5015739;28;20483;-80
2024/01/27 00:13:52;;;;;;;1.70;1.50;;;3.70;98.20;;;;;;5033932;28;20463;-78
2024/01/27 00:16:19;;;;;;;1.70;1.40;;;3.60;98.20;;;;;;5020569;28;20482;-79
2024/01/27 00:18:47;;;;;;;1.70;1.50;;;3.60;98.20;;;;;;5029775;28;20528;-80
2024/01/27 00:21:14;;;;;;;1.70;1.40;;;3.60;98.20;;;;;;5014766;28;21557;-79
2024/01/27 00:23:41;;;;;;;1.70;1.53;;;3.50;98.20;;;;;;5032475;28;20742;-79
2024/01/27 00:26:08;;;;;;;1.60;1.40;;;3.50;98.20;;;;;;5017828;28;20478;-79
2024/01/27 00:28:36;;;;;;;1.67;1.40;;;3.50;98.20;;;;;;5031507;28;20635;-80
2024/01/27 00:31:04;;;;;;;1.70;1.47;;;3.40;98.20;;;;;;5012633;28;21043;-79
2024/01/27 00:33:31;;;;;;;1.70;1.40;;;3.40;98.20;;;;;;5034640;28;20556;-79
2024/01/27 00:35:58;;;;;;;1.60;1.30;;;3.40;98.20;;;;;;5011319;28;20493;-78
2024/01/27 00:38:25;;;;;;;1.70;1.40;;;3.30;98.20;;;;;;5033078;28;20771;-79
2024/01/27 00:40:53;;;;;;;1.60;1.40;;;3.30;98.20;;;;;;5017700;28;20467;-79
2024/01/27 00:43:19;;;;;;;1.60;1.50;;;3.30;98.20;;;;;;5042769;28;20467;-79
2024/01/27 00:45:52;;;;;;;1.67;1.40;;;3.20;98.20;;;;;;5029008;28;20475;-79
2024/01/27 00:48:19;;;;;;;1.63;1.40;;;3.20;98.20;;;;;;5009033;28;20486;-79
2024/01/27 00:50:46;;;;;;;1.67;1.40;;;3.20;98.20;;;;;;5020055;28;20464;-80
2024/01/27 00:53:12;;;;;;;1.63;1.40;;;3.10;98.20;;;;;;5004657;28;20474;-79
2024/01/27 00:55:39;;;;;;;1.60;1.40;;;3.10;98.20;;;;;;5017979;28;20514;-80
2024/01/27 00:58:08;;;;;;;1.80;1.70;;;3.10;98.20;;;;;;5026342;28;20487;-80
2024/01/27 01:00:34;;;;;;;1.70;1.60;;;3.00;98.20;;;;;;5018737;28;20511;-79
2024/01/27 01:03:03;;;;;;;1.70;1.50;;;3.00;98.20;;;;;;5016843;28;20487;-80
2024/01/27 01:05:31;;;;;;;1.70;1.60;;;3.00;98.20;;;;;;5020465;28;20480;-81
2024/01/27 01:07:57;;;;;;;1.60;1.40;;;3.00;98.20;;;;;;5025361;28;20485;-80
2024/01/27 01:10:24;;;;;;;1.70;1.50;;;3.00;98.20;;;;;;5021715;28;20456;-81
2024/01/27 01:12:51;;;;;;;1.70;1.53;;;2.90;98.20;;;;;;5024773;28;20493;-81
2024/01/27 01:15:18;;;;;;;1.70;1.50;;;2.90;98.20;;;;;;5038094;22;20526;-80
2024/01/27 01:17:45;;;;;;;1.70;1.40;;;2.90;98.20;;;;;;5013037;28;20476;-80
2024/01/27 01:20:13;;;;;;;1.67;1.43;;;2.80;98.20;;;;;;5004159;28;20463;-80
2024/01/27 01:22:40;;;;;;;1.70;1.50;;;2.80;98.20;;;;;;5004327;28;20476;-80
2024/01/27 01:25:07;;;;;;;1.70;1.50;;;2.80;98.20;;;;;;5006361;28;20481;-79
2024/01/27 01:27:34;;;;;;;1.63;1.50;;;2.70;98.20;;;;;;5008458;28;20566;-80
2024/01/27 01:30:01;;;;;;;1.60;1.40;;;2.70;98.20;;;;;;5002125;28;20461;-80
2024/01/27 01:32:27;;;;;;;1.60;1.40;;;2.70;98.20;;;;;;4997691;28;20502;-80
2024/01/27 01:34:54;;;;;;;1.70;1.50;;;2.60;98.20;;;;;;5004597;28;20476;-80
2024/01/27 01:37:22;;;;;;;1.70;1.53;;;2.60;98.20;;;;;;4999638;28;20480;-80
2024/01/27 01:39:49;;;;;;;1.70;1.50;;;2.60;98.20;;;;;;5002816;28;20480;-79
2024/01/27 01:42:16;;;;;;;1.67;1.47;;;2.60;98.20;;;;;;4997232;28;23168;-80
2024/01/27 01:44:42;;;;;;;1.67;1.50;;;2.60;98.20;;;;;;5007043;28;20814;-79
2024/01/27 01:47:09;;;;;;;1.67;1.50;;;2.60;98.20;;;;;;4996891;28;20479;-80
2024/01/27 01:49:37;;;;;;;1.63;1.50;;;2.50;98.20;;;;;;5010575;28;20460;-80
2024/01/27 01:52:05;;;;;;;1.70;1.53;;;2.50;98.20;;;;;;4999742;28;20476;-80
2024/01/27 01:54:33;;;;;;;1.63;1.50;;;2.50;98.20;;;;;;4997820;28;20476;-80
2024/01/27 01:57:00;;;;;;;1.70;1.60;;;2.40;98.20;;;;;;4993345;28;20486;-80
2024/01/27 01:59:27;;;;;;;1.70;1.60;;;2.40;98.20;;;;;;5001262;28;20952;-80
2024/01/27 02:01:54;;;;;;;1.67;1.40;;;2.40;98.20;;;;;;4992424;28;20484;-80
2024/01/27 02:04:20;;;;;;;1.70;1.47;;;2.40;98.20;;;;;;5003989;28;20958;-80
2024/01/27 02:06:47;;;;;;;1.70;1.50;;;2.30;98.20;;;;;;4997325;28;20483;-80
2024/01/27 02:09:14;;;;;;;1.70;1.50;;;2.30;98.20;;;;;;5007002;28;20476;-80
2024/01/27 02:11:43;;;;;;;1.63;1.40;;;2.30;98.20;;;;;;4992315;28;20495;-79
2024/01/27 02:14:10;;;;;;;1.70;1.50;;;2.20;98.20;;;;;;5005677;28;20464;-80
2024/01/27 02:16:37;;;;;;;1.60;1.40;;;2.30;98.20;;;;;;5003539;28;20781;-80
2024/01/27 02:19:03;;;;;;;1.77;1.67;;;2.20;98.20;;;;;;5014324;28;20464;-80
2024/01/27 02:21:30;;;;;;;1.70;1.60;;;2.20;98.20;;;;;;4999399;28;20475;-80
2024/01/27 02:23:57;;;;;;;1.70;1.50;;;2.20;98.20;;;;;;5014451;28;20487;-80
2024/01/27 02:26:25;;;;;;;1.67;1.50;;;2.20;98.20;;;;;;4989631;28;20858;-80
2024/01/27 02:28:52;;;;;;;1.80;1.70;;;2.20;98.20;;;;;;5020773;28;20955;-80
2024/01/27 02:31:18;;;;;;;1.67;1.47;;;2.20;98.20;;;;;;4993021;28;20479;-80
2024/01/27 02:33:45;;;;;;;1.63;1.40;;;2.20;98.20;;;;;;5008486;28;20464;-80
2024/01/27 02:36:12;;;;;;;1.63;1.50;;;2.20;98.20;;;;;;4997757;28;20483;-80
2024/01/27 02:38:39;;;;;;;1.60;1.50;;;2.10;98.20;;;;;;5019266;28;20467;-80
2024/01/27 02:41:06;;;;;;;1.70;1.53;;;2.10;98.20;;;;;;4996304;28;20465;-80
2024/01/27 02:43:34;;;;;;;1.67;1.50;;;2.10;98.20;;;;;;5012652;28;20547;-79
2024/01/27 02:46:01;;;;;;;1.63;1.50;;;2.10;98.20;;;;;;4992637;28;20510;-80
2024/01/27 02:48:27;;;;;;;1.67;1.47;;;2.00;98.20;;;;;;5010356;28;20468;-80
2024/01/27 02:50:54;;;;;;;1.70;1.53;;;2.00;98.20;;;;;;4989055;28;20701;-80
2024/01/27 02:53:21;;;;;;;1.70;1.60;;;2.00;98.20;;;;;;5003993;28;20885;-80
2024/01/27 02:55:47;;;;;;;1.70;1.60;;;2.00;98.20;;;;;;4996324;28;20506;-80
2024/01/27 02:58:14;;;;;;;1.60;1.50;;;2.00;98.20;;;;;;5018085;28;20838;-80
2024/01/27 03:00:43;;;;;;;1.60;1.50;;;2.00;98.20;;;;;;4999503;28;20464;-80
2024/01/27 03:03:09;;;;;;;1.70;1.57;;;2.00;98.20;;;;;;5000463;28;20990;-80
2024/01/27 03:05:36;;;;;;;1.63;1.50;;;2.00;98.20;;;;;;4998847;28;20557;-80
2024/01/27 03:08:03;;;;;;;1.70;1.50;;;2.00;98.20;;;;;;5004506;28;20534;-80
2024/01/27 03:10:31;;;;;;;1.70;1.60;;;1.90;98.20;;;;;;4999824;28;20472;-79
2024/01/27 03:12:58;;;;;;;1.60;1.50;;;1.90;98.20;;;;;;5007349;28;20471;-80
2024/01/27 03:15:24;;;;;;;1.70;1.60;;;1.90;98.20;;;;;;5002134;28;20875;-80
2024/01/27 03:17:52;;;;;;;1.80;1.70;;;1.90;98.20;;;;;;4992966;28;20488;-80
2024/01/27 03:20:19;;;;;;;1.63;1.50;;;1.80;98.20;;;;;;4995866;28;20478;-79
2024/01/27 03:22:46;;;;;;;1.60;1.40;;;1.80;98.20;;;;;;5003851;28;20546;-80
2024/01/27 03:25:13;;;;;;;1.70;1.60;;;1.70;98.20;;;;;;5003133;28;20679;-79
2024/01/27 03:27:39;;;;;;;1.70;1.60;;;1.70;98.20;;;;;;5009117;28;20482;-80
2024/01/27 03:30:07;;;;;;;1.60;1.50;;;1.70;98.20;;;;;;4998281;28;20834;-79
2024/01/27 03:32:34;;;;;;;1.67;1.50;;;1.70;98.20;;;;;;5002859;28;20890;-80
2024/01/27 03:35:04;;;;;;;1.70;1.60;;;1.70;98.20;;;;;;5000727;28;20472;-80
2024/01/27 03:37:31;;;;;;;1.70;1.60;;;1.60;98.20;;;;;;5007560;28;20579;-79
2024/01/27 03:39:58;;;;;;;1.67;1.50;;;1.60;98.20;;;;;;4996114;28;20469;-80
2024/01/27 03:42:25;;;;;;;1.67;1.50;;;1.60;98.20;;;;;;4990584;28;20553;-79
2024/01/27 03:44:52;;;;;;;1.70;1.50;;;1.50;98.20;;;;;;5004618;28;21225;-80
2024/01/27 03:47:19;;;;;;;1.63;1.50;;;1.50;98.20;;;;;;4990986;28;20928;-79
2024/01/27 03:49:45;;;;;;;1.67;1.53;;;1.50;98.20;;;;;;5002952;28;20978;-79
2024/01/27 03:52:14;;;;;;;1.70;1.60;;;1.50;98.20;;;;;;5002647;28;20485;-80
2024/01/27 03:54:40;;;;;;;1.70;1.50;;;1.50;98.20;;;;;;5002760;28;20896;-80
2024/01/27 03:57:07;;;;;;;1.77;1.67;;;1.40;98.20;;;;;;5000861;28;21056;-80
2024/01/27 03:59:34;;;;;;;1.87;1.77;;;1.40;98.20;;;;;;5000303;28;20464;-80
2024/01/27 04:02:01;;;;;;;1.67;1.50;;;1.40;98.20;;;;;;4991250;28;21025;-80
2024/01/27 04:04:27;;;;;;;1.63;1.53;;;1.40;98.20;;;;;;5000885;28;20460;-80
2024/01/27 04:06:54;;;;;;;1.70;1.50;;;1.40;98.20;;;;;;4998895;28;20645;-80
2024/01/27 04:09:22;;;;;;;1.70;1.60;;;1.40;98.20;;;;;;5011511;28;21037;-80
2024/01/27 04:11:49;;;;;;;1.70;1.60;;;1.40;98.20;;;;;;4995985;28;20496;-80
2024/01/27 04:14:16;;;;;;;1.60;1.50;;;1.40;98.20;;;;;;5002810;28;20467;-80
2024/01/27 04:16:43;;;;;;;1.67;1.53;;;1.40;98.20;;;;;;4995814;28;20479;-80
2024/01/27 04:19:09;;;;;;;1.77;1.67;;;1.40;98.20;;;;;;5002333;28;20468;-80
2024/01/27 04:21:36;;;;;;;1.70;1.60;;;1.40;98.20;;;;;;4996998;28;20479;-79
2024/01/27 04:24:03;;;;;;;1.67;1.53;;;1.30;98.20;;;;;;5011793;28;20464;-80
2024/01/27 04:26:31;;;;;;;1.70;1.57;;;1.30;98.20;;;;;;5001619;28;20484;-79
2024/01/27 04:28:58;;;;;;;1.70;1.60;;;1.30;98.20;;;;;;5020125;28;20555;-80
2024/01/27 04:31:25;;;;;;;1.70;1.50;;;1.30;98.20;;;;;;4990775;28;20471;-80
2024/01/27 04:33:52;;;;;;;1.60;1.50;;;1.30;98.20;;;;;;5007018;28;20471;-80
2024/01/27 04:36:27;;;;;;;1.63;1.50;;;1.30;98.20;;;;;;4993093;28;20480;-79
2024/01/27 04:38:53;;;;;;;1.70;1.50;;;1.30;98.20;;;;;;5017090;28;20463;-80
2024/01/27 04:41:20;;;;;;;1.67;1.50;;;1.30;98.20;;;;;;4990895;28;20522;-79
2024/01/27 04:43:48;;;;;;;1.63;1.50;;;1.30;98.20;;;;;;5016381;28;20487;-80
2024/01/27 04:46:15;;;;;;;1.70;1.60;;;1.20;98.20;;;;;;4993538;28;20487;-79
2024/01/27 04:48:42;;;;;;;1.60;1.50;;;1.20;98.20;;;;;;5017802;28;20483;-79
2024/01/27 04:51:09;;;;;;;1.70;1.60;;;1.20;98.20;;;;;;5000307;28;20475;-80
2024/01/27 04:53:35;;;;;;;1.63;1.50;;;1.10;98.20;;;;;;5013309;28;20468;-79
2024/01/27 04:56:02;;;;;;;1.60;1.50;;;1.10;98.20;;;;;;4994095;28;20484;-80
2024/01/27 04:58:29;;;;;;;1.80;1.70;;;1.20;98.20;;;;;;5009134;28;20457;-79
2024/01/27 05:00:57;;;;;;;1.70;1.60;;;1.10;98.20;;;;;;4988415;28;20469;-80
2024/01/27 05:03:24;;;;;;;1.70;1.60;;;1.10;98.20;;;;;;5017060;28;20978;-80
2024/01/27 05:05:50;;;;;;;1.73;1.63;;;1.10;98.20;;;;;;4986892;28;20584;-79
2024/01/27 05:08:17;;;;;;;1.73;1.63;;;1.10;98.20;;;;;;5017555;28;20786;-80
2024/01/27 05:10:44;;;;;;;1.80;1.70;;;1.10;98.20;;;;;;4998225;28;20465;-80
2024/01/27 05:13:11;;;;;;;1.70;1.53;;;1.10;98.20;;;;;;5008565;28;21008;-80
2024/01/27 05:15:38;;;;;;;1.70;1.60;;;1.10;98.20;;;;;;4995311;28;20870;-80
2024/01/27 05:18:06;;;;;;;1.70;1.53;;;1.10;98.20;;;;;;5006344;28;20486;-81
2024/01/27 05:20:33;;;;;;;1.70;1.60;;;1.10;98.20;;;;;;4991577;28;20471;-80
2024/01/27 05:23:00;;;;;;;1.70;1.60;;;1.10;98.20;;;;;;5009102;28;20540;-79
2024/01/27 05:25:26;;;;;;;1.63;1.50;;;1.10;98.20;;;;;;4996050;28;20485;-79
2024/01/27 05:27:53;;;;;;;1.67;1.50;;;1.10;98.20;;;;;;5007999;28;20483;-80
2024/01/27 05:30:20;;;;;;;1.90;1.80;;;1.00;98.20;;;;;;5004177;28;20460;-80
2024/01/27 05:32:47;;;;;;;1.60;1.50;;;1.00;98.20;;;;;;5002868;28;20479;-80
2024/01/27 05:35:15;;;;;;;1.67;1.50;;;1.00;98.20;;;;;;4997559;28;20483;-80
2024/01/27 05:37:42;;;;;;;1.67;1.50;;;1.00;98.20;;;;;;5012086;28;20490;-79
2024/01/27 05:40:10;;;;;;;1.70;1.50;;;1.00;98.20;;;;;;4993394;28;20469;-80
2024/01/27 05:42:37;;;;;;;1.60;1.50;;;1.00;98.20;;;;;;5005857;28;20544;-80
2024/01/27 05:45:04;;;;;;;1.60;1.50;;;1.00;98.20;;;;;;4993118;28;20485;-80
2024/01/27 05:47:31;;;;;;;1.70;1.60;;;1.00;98.20;;;;;;5013509;28;20483;-80
2024/01/27 05:49:58;;;;;;;1.80;1.70;;;0.90;98.20;;;;;;4998944;28;20468;-80
2024/01/27 05:52:26;;;;;;;1.70;1.60;;;0.90;98.20;;;;;;5001172;28;20998;-80
2024/01/27 05:54:53;;;;;;;1.63;1.50;;;0.90;98.20;;;;;;5004193;28;20473;-80
2024/01/27 05:57:20;;;;;;;1.70;1.60;;;0.90;98.20;;;;;;5002874;28;20480;-80
2024/01/27 05:59:46;;;;;;;1.70;1.60;;;0.90;98.20;;;;;;4998581;28;20469;-80
2024/01/27 06:02:14;;;;;;;1.63;1.50;;;0.90;98.20;;;;;;5004392;28;20494;-80
2024/01/27 06:04:40;;;;;;;1.80;1.70;;;0.90;98.20;;;;;;4999867;28;20469;-79
2024/01/27 06:07:07;;;;;;;1.70;1.60;;;0.90;98.20;;;;;;5002299;28;20475;-80
2024/01/27 06:09:37;;;;;;;1.70;1.60;;;0.90;98.20;;;;;;5008833;28;20465;-80
2024/01/27 06:12:05;;;;;;;5.13;4.70;;;0.90;98.20;;;;;;5001330;28;20490;-80
2024/01/27 06:14:32;;;;;;;1.70;1.53;;;0.90;98.20;;;;;;5006074;28;20472;-79
2024/01/27 06:16:59;;;;;;;1.70;1.57;;;0.90;98.20;;;;;;5000866;28;20486;-80
2024/01/27 06:19:26;;;;;;;1.70;1.60;;;0.90;98.20;;;;;;4999803;28;20623;-80
2024/01/27 06:21:53;;;;;;;1.63;1.50;;;0.90;98.20;;;;;;4998684;28;20483;-79
2024/01/27 06:24:20;;;;;;;1.70;1.50;;;0.80;98.20;;;;;;5002120;28;20472;-79
2024/01/27 06:26:48;;;;;;;1.70;1.60;;;0.80;98.20;;;;;;4989882;28;20492;-79
2024/01/27 06:29:15;;;;;;;1.63;1.53;;;0.80;98.20;;;;;;5009284;28;20496;-79
2024/01/27 06:31:42;;;;;;;1.70;1.60;;;0.70;98.20;;;;;;4994940;28;21002;-79
2024/01/27 06:34:09;;;;;;;1.63;1.50;;;0.70;98.20;;;;;;5007548;28;20979;-79
2024/01/27 06:36:35;;;;;;;1.70;1.60;;;0.70;98.20;;;;;;4991903;28;20482;-80
2024/01/27 06:39:02;;;;;;;1.63;1.50;;;0.70;98.20;;;;;;5009676;28;20456;-80
2024/01/27 06:41:29;;;;;;;1.87;1.77;;;0.70;98.20;;;;;;4990265;28;20478;-79
2024/01/27 06:43:57;;;;;;;1.67;1.50;;;0.70;98.20;;;;;;5009880;28;20939;-79
2024/01/27 06:46:24;;;;;;;1.70;1.60;;;0.70;98.20;;;;;;4995121;28;20840;-79
2024/01/27 06:48:51;;;;;;;1.90;1.80;;;0.70;98.20;;;;;;5009305;28;20535;-79
2024/01/27 06:51:18;;;;;;;1.70;1.60;;;0.70;98.20;;;;;;4987151;28;20484;-80
2024/01/27 06:53:45;;;;;;;1.70;1.60;;;0.70;98.20;;;;;;5010062;28;20468;-80
2024/01/27 06:56:11;;;;;;;1.60;1.50;;;0.60;98.20;;;;;;4988458;28;20506;-80
2024/01/27 06:58:38;;;;;;;1.67;1.50;;;0.60;98.20;;;;;;5015123;28;20859;-80
2024/01/27 07:01:08;;;;;;;1.63;1.50;;;0.60;98.20;;;;;;4985277;28;20476;-79
2024/01/27 07:03:35;;;;;;;1.60;1.50;;;0.60;98.20;;;;;;5017076;28;20457;-79
2024/01/27 07:06:02;;;;;;;1.70;1.60;;;0.50;98.20;;;;;;4989229;28;21003;-80
2024/01/27 07:08:29;;;;;;;1.70;1.60;;;0.60;98.20;;;;;;5014836;28;20465;-80
2024/01/27 07:10:56;;;;;;;1.67;1.50;;;0.60;98.20;;;;;;4993797;28;20830;-79
2024/01/27 07:13:22;;;;;;;1.90;1.80;;;0.60;98.20;;;;;;5014810;28;20467;-80
2024/01/27 07:15:49;;;;;;;1.70;1.60;;;0.60;98.20;;;;;;4981098;28;21195;-80
2024/01/27 07:18:19;;;;;;;1.90;1.80;;;0.60;98.20;;;;;;5015628;28;20484;-79
2024/01/27 07:20:46;;;;;;;1.70;1.60;;;0.60;98.20;;;;;;4994937;28;20524;-81
2024/01/27 07:23:12;;;;;;;1.77;1.67;;;0.60;98.20;;;;;;4991450;28;20476;-80
2024/01/27 07:25:39;;;;;;;1.70;1.60;;;0.60;98.20;;;;;;4996176;28;20493;-81
2024/01/27 07:28:06;;;;;;;1.63;1.50;;;0.60;98.20;;;;;;5011000;28;20565;-81
2024/01/27 07:30:33;;;;;;;1.80;1.70;;;0.60;98.20;;;;;;4990637;28;20457;-82
2024/01/27 07:33:00;;;;;;;1.63;1.50;;;0.60;98.20;;;;;;5012175;28;20874;-81
2024/01/27 07:35:28;;;;;;;1.80;1.70;;;0.60;98.20;;;;;;4993958;28;21015;-80
2024/01/27 07:37:54;;;;;;;1.63;1.50;;;0.60;98.20;;;;;;5008106;28;21041;-81
2024/01/27 07:40:22;;;;;;;1.70;1.60;;;0.60;98.20;;;;;;4990232;28;20465;-79
2024/01/27 07:42:49;;;;;;;1.67;1.50;;;0.70;98.20;;;;;;5003976;28;20483;-80
2024/01/27 07:45:16;;;;;;;1.70;1.60;;;0.70;98.20;;;;;;4999558;28;20495;-80
2024/01/27 07:47:42;;;;;;;1.70;1.50;;;0.70;98.20;;;;;;4987619;28;20847;-79
2024/01/27 07:50:10;;;;;;;1.63;1.50;;;0.70;98.20;;;;;;5002802;28;20464;-79
2024/01/27 07:52:40;;;;;;;1.70;1.60;;;0.70;98.20;;;;;;5000310;28;20994;-79
2024/01/27 07:55:07;;;;;;;1.83;1.73;;;0.80;98.20;;;;;;4998653;28;20503;-79
2024/01/27 07:57:35;;;;;;;1.73;1.63;;;0.80;98.20;;;;;;4989661;28;20480;-79
2024/01/27 08:00:02;;;;;;;1.67;1.50;;;0.90;98.20;;;;;;5001669;28;20468;-79
2024/01/27 08:02:28;;;;;;;1.70;1.60;;;1.00;98.20;;;;;;4997319;28;20626;-79
2024/01/27 08:04:55;;;;;;;1.60;1.50;;;1.00;98.20;;;;;;5002089;28;20819;-79
2024/01/27 08:07:22;;;;;;;1.67;1.53;;;1.10;98.20;;;;;;4986733;28;20484;-79
2024/01/27 08:09:50;;;;;;;1.60;1.50;;;1.20;98.20;;;;;;4998489;28;20469;-79
2024/01/27 08:12:17;;;;;;;1.70;1.60;;;1.30;98.20;;;;;;4994057;28;20491;-79
2024/01/27 08:14:44;;;;;;;1.67;1.50;;;1.40;98.20;;;;;;4997116;28;20461;-79
2024/01/27 08:17:11;;;;;;;1.70;1.60;;;1.50;98.20;;;;;;4992923;28;20498;-79
2024/01/27 08:19:38;;;;;;;1.70;1.60;;;1.60;98.20;;;;;;5003972;28;20452;-79
2024/01/27 08:22:05;;;;;;;1.80;1.70;;;1.70;98.20;;;;;;5006581;28;20486;-79
2024/01/27 08:24:31;;;;;;;1.70;1.60;;;1.80;98.20;;;;;;5002997;28;20559;-79
2024/01/27 08:27:01;;;;;;;1.60;1.50;;;1.90;98.20;;;;;;4995662;28;20492;-79
2024/01/27 08:29:27;;;;;;;1.80;1.70;;;2.00;98.20;;;;;;5009407;28;20456;-79
2024/01/27 08:31:54;;;;;;;1.67;1.50;;;2.10;98.20;;;;;;5003291;28;20494;-78
2024/01/27 08:34:21;;;;;;;1.67;1.50;;;2.20;98.20;;;;;;5007468;28;23118;-78
2024/01/27 08:36:48;;;;;;;1.60;1.50;;;2.30;98.20;;;;;;4993625;28;20483;-77
2024/01/27 08:39:14;;;;;;;1.67;1.50;;;2.40;98.20;;;;;;5007345;28;20512;-78
2024/01/27 08:41:41;;;;;;;1.67;1.50;;;2.60;98.20;;;;;;4998349;28;20988;-78
2024/01/27 08:44:09;;;;;;;1.80;1.70;;;2.70;98.20;;;;;;5007730;28;20989;-76
2024/01/27 08:46:36;;;;;;;1.67;1.47;;;2.80;98.20;;;;;;4992412;28;20481;-77
2024/01/27 08:49:03;;;;;;;1.67;1.50;;;2.90;98.20;;;;;;5006073;28;20461;-77
2024/01/27 08:51:29;;;;;;;1.67;1.50;;;3.00;98.20;;;;;;4996499;28;20475;-77
2024/01/27 08:53:56;;;;;;;1.70;1.50;;;3.10;98.20;;;;;;5015582;28;20468;-77
2024/01/27 08:56:23;;;;;;;1.70;1.50;;;3.20;98.20;;;;;;4990297;28;20487;-77
2024/01/27 08:58:51;;;;;;;1.70;1.50;;;3.30;98.20;;;;;;5012605;28;21007;-77
2024/01/27 09:01:19;;;;;;;1.63;1.40;;;3.40;98.20;;;;;;4995676;28;20475;-77
2024/01/27 09:03:46;;;;;;;1.63;1.50;;;3.50;98.20;;;;;;5007658;28;20464;-77
2024/01/27 09:06:12;;;;;;;1.67;1.40;;;3.60;98.20;;;;;;4993388;28;20492;-77
2024/01/27 09:08:39;;;;;;;1.70;1.40;;;3.70;98.20;;;;;;5017423;28;20456;-77
2024/01/27 09:11:06;;;;;;;1.63;1.40;;;3.70;98.20;;;;;;4989125;28;20563;-77
2024/01/27 09:13:33;;;;;;;1.67;1.40;;;3.80;98.20;;;;;;5008857;28;20551;-77
2024/01/27 09:16:00;;;;;;;1.70;1.40;;;3.90;98.20;;;;;;4984755;28;20500;-77
2024/01/27 09:18:28;;;;;;;1.67;1.40;;;4.00;98.20;;;;;;5016339;28;20480;-78
2024/01/27 09:20:55;;;;;;;1.70;1.47;;;4.10;98.20;;;;;;4995262;28;20483;-77
2024/01/27 09:23:22;;;;;;;1.70;1.43;;;4.20;98.20;;;;;;5005550;28;20863;-78
2024/01/27 09:25:48;;;;;;;1.70;1.40;;;4.20;98.20;;;;;;4988446;28;20492;-78
2024/01/27 09:28:15;;;;;;;1.60;1.30;;;4.30;98.20;;;;;;5019913;28;20469;-78
2024/01/27 09:30:42;;;;;;;1.70;1.40;;;4.40;98.20;;;;;;5001902;28;20468;-78
2024/01/27 09:33:09;;;;;;;1.60;1.30;;;4.50;98.20;;;;;;4997184;28;20481;-78
2024/01/27 09:35:37;;;;;;;1.70;1.60;;;4.60;98.20;;;;;;4998583;28;20488;-78
2024/01/27 09:38:04;;;;;;;1.60;1.30;;;4.70;98.20;;;;;;4999259;28;20479;-79
2024/01/27 09:40:31;;;;;;;1.70;1.47;;;4.80;98.20;;;;;;4999483;28;20464;-79
2024/01/27 09:43:00;;;;;;;1.70;1.50;;;4.80;98.20;;;;;;5001233;28;20480;-78
2024/01/27 09:45:28;;;;;;;1.60;1.30;;;5.00;98.20;;;;;;5001002;28;21174;-78
2024/01/27 09:47:57;;;;;;;1.63;1.30;;;5.10;98.20;;;;;;5009723;28;20629;-78
2024/01/27 09:50:24;;;;;;;1.70;1.40;;;5.20;98.20;;;;;;5001907;28;20468;-79
2024/01/27 09:52:52;;;;;;;1.60;1.30;;;5.20;98.20;;;;;;5000520;28;20484;-79
2024/01/27 09:55:19;;;;;;;1.67;1.30;;;5.20;98.20;;;;;;5005181;28;20488;-79
2024/01/27 09:57:47;;;;;;;1.63;1.30;;;5.30;98.20;;;;;;4983249;28;21042;-79
2024/01/27 10:00:16;;;;;;;1.70;1.40;;;5.40;98.20;;;;;;5002887;28;20522;-79
2024/01/27 10:02:45;;;;;;;1.70;1.40;;;5.40;98.20;;;;;;4988529;28;20990;-78
2024/01/27 10:05:13;;;;;;;1.67;1.30;;;5.50;98.20;;;;;;4999092;28;21092;-77
2024/01/27 10:07:41;;;;;;;1.63;1.30;;;5.50;98.20;;;;;;5006507;28;20570;-79
2024/01/27 10:10:09;;;;;;;1.60;1.37;;;5.60;98.20;;;;;;5001638;28;20459;-79
2024/01/27 10:12:41;;;;;;;1.60;1.30;;;5.60;98.20;;;;;;4995256;28;20518;-79
2024/01/27 10:15:20;;;;;;;1.70;1.33;;;5.70;98.20;;;;;;4999335;28;20492;-79
2024/01/27 10:17:47;;;;;;;1.60;1.20;;;5.80;98.20;;;;;;5007077;28;20585;-79
2024/01/27 10:20:15;;;;;;;1.60;1.20;;;5.90;98.20;;;;;;4999101;28;20511;-79
2024/01/27 10:22:44;;;;;;;1.60;1.20;;;6.00;98.20;;;;;;4996606;28;21087;-79
2024/01/27 10:25:13;;;;;;;1.60;1.20;;;6.20;98.20;;;;;;5001094;28;20492;-79
2024/01/27 10:27:41;;;;;;;1.60;1.30;;;6.20;98.20;;;;;;4994466;28;20484;-79
2024/01/27 10:30:17;;;;;;;1.70;1.40;;;6.30;98.20;;;;;;4999818;28;20457;-79
2024/01/27 10:32:44;;;;;;;1.60;1.20;;;6.40;98.20;;;;;;4995896;28;20487;-79
2024/01/27 10:35:11;;;;;;;1.67;1.27;;;6.50;98.20;;;;;;4995241;28;20546;-78
2024/01/27 10:37:39;;;;;;;1.60;1.30;;;6.70;98.20;;;;;;4988614;28;20484;-78
2024/01/27 10:40:08;;;;;;;1.67;1.30;;;6.70;98.20;;;;;;4996923;28;20492;-79
2024/01/27 10:42:37;;;;;;;1.60;1.20;;;6.90;98.20;;;;;;5000257;28;20488;-79
2024/01/27 10:45:05;;;;;;;1.60;1.30;;;6.90;98.20;;;;;;4999344;28;20534;-80
2024/01/27 10:47:33;;;;;;;1.60;1.20;;;7.10;98.20;;;;;;4990866;28;20476;-79
2024/01/27 10:52:59;;;;;;;1.60;1.20;;;7.20;98.20;;;;;;4982217;28;20478;-79
2024/01/27 10:55:26;;;;;;;3.23;3.03;;;7.40;98.20;;;;;;5001091;28;21790;-79
2024/01/27 10:57:57;;;;;;;1.60;1.20;;;7.60;98.20;;;;;;4991432;28;20507;-79
2024/01/27 11:00:26;;;;;;;1.60;1.20;;;7.60;98.20;;;;;;5000538;28;20535;-79
2024/01/27 11:02:54;;;;;;;1.60;1.20;;;7.60;98.20;;;;;;5003080;28;20475;-79
2024/01/27 11:05:25;;;;;;;1.60;1.20;;;7.60;98.20;;;;;;4999196;28;21161;-79
2024/01/27 11:07:52;;;;;;;1.70;1.40;;;7.60;98.20;;;;;;5007079;28;20554;-79
2024/01/27 11:10:19;;;;;;;1.60;1.30;;;7.60;98.20;;;;;;5000542;28;20870;-79
2024/01/27 11:12:48;;;;;;;1.60;1.10;;;7.60;98.20;;;;;;4992383;28;20480;-77
2024/01/27 11:15:17;;;;;;;1.67;1.30;;;7.60;98.20;;;;;;4997491;28;20573;-81
2024/01/27 11:17:45;;;;;;;1.60;1.33;;;7.60;98.20;;;;;;4994702;28;20834;-78
2024/01/27 11:20:13;;;;;;;1.63;1.20;;;7.70;98.20;;;;;;4997776;28;20492;-78
2024/01/27 11:22:42;;;;;;;1.60;1.20;;;7.90;98.20;;;;;;4993553;28;20488;-79
2024/01/27 11:25:15;;;;;;;1.60;1.20;;;8.10;98.20;;;;;;4985762;28;20488;-78
2024/01/27 11:27:44;;;;;;;1.60;1.20;;;8.20;98.20;;;;;;4989806;28;21001;-79
2024/01/27 11:30:28;;;;;;;1.60;1.23;;;8.30;98.20;;;;;;4985703;28;20465;-78
2024/01/27 11:32:56;;;;;;;1.60;1.20;;;8.50;98.20;;;;;;5006311;28;20481;-78
2024/01/27 11:35:23;;;;;;;1.60;1.23;;;8.70;98.20;;;;;;5001408;28;20874;-79
2024/01/27 11:37:50;;;;;;;1.60;1.20;;;8.80;98.20;;;;;;5009044;28;20498;-78
2024/01/27 11:40:17;;;;;;;1.60;1.20;;;8.90;98.20;;;;;;5000592;28;20484;-79
2024/01/27 11:42:44;;;;;;;1.60;1.10;;;9.00;98.20;;;;;;5003776;28;20729;-79
2024/01/27 11:45:11;;;;;;;1.60;1.20;;;9.10;98.20;;;;;;4999862;28;20494;-78
2024/01/27 11:47:40;;;;;;;1.60;1.20;;;9.10;98.20;;;;;;5005449;28;20483;-79
2024/01/27 11:50:08;;;;;;;1.60;1.10;;;9.20;98.20;;;;;;5006324;28;20456;-79
2024/01/27 11:52:35;;;;;;;2.70;2.50;;;9.20;98.20;;;;;;5000811;28;21350;-79
2024/01/27 11:55:02;;;;;;;1.60;1.20;;;9.30;98.20;;;;;;5001177;28;20872;-78
2024/01/27 11:57:29;;;;;;;1.60;1.10;;;9.30;98.20;;;;;;5003534;28;20483;-78
2024/01/27 11:59:57;;;;;;;1.60;1.20;;;9.30;98.20;;;;;;5003842;28;20488;-80
2024/01/27 12:02:24;;;;;;;1.70;1.40;;;9.30;98.20;;;;;;5005899;28;20479;-79
2024/01/27 12:04:53;;;;;;;1.60;1.10;;;9.30;98.20;;;;;;5008585;28;20459;-79
2024/01/27 12:07:21;;;;;;;1.60;1.10;;;9.20;98.20;;;;;;5004046;28;20486;-79
2024/01/27 12:09:50;;;;;;;1.60;1.10;;;9.20;98.20;;;;;;5001150;28;20552;-79
2024/01/27 12:12:17;;;;;;;1.60;1.20;;;9.20;98.20;;;;;;5005496;28;20540;-80
2024/01/27 12:14:48;;;;;;;1.60;1.10;;;9.20;98.20;;;;;;5006432;28;20510;-79
2024/01/27 12:17:15;;;;;;;1.60;1.20;;;9.20;98.20;;;;;;5004854;28;20490;-80
2024/01/27 12:19:47;;;;;;;1.60;1.10;;;9.20;98.20;;;;;;5008794;28;20495;-80
2024/01/27 12:22:25;;;;;;;1.60;1.20;;;9.10;98.20;;;;;;5002530;28;20506;-80
2024/01/27 12:24:52;;;;;;;1.60;1.20;;;9.10;98.20;;;;;;5009474;28;21083;-80
2024/01/27 12:27:20;;;;;;;1.60;1.10;;;9.10;98.20;;;;;;5004495;28;20532;-81
2024/01/27 12:29:49;;;;;;;1.60;1.20;;;9.10;98.20;;;;;;5008757;28;20495;-81
2024/01/27 12:32:16;;;;;;;1.80;1.60;;;9.10;98.20;;;;;;5001848;28;20475;-81
2024/01/27 12:34:45;;;;;;;1.60;1.10;;;9.10;98.20;;;;;;5001779;28;20461;-79
2024/01/27 12:37:13;;;;;;;1.60;1.10;;;9.10;98.20;;;;;;4996007;28;21097;-80
2024/01/27 12:39:44;;;;;;;1.60;1.30;;;9.00;98.20;;;;;;5003312;28;21108;-79
2024/01/27 12:42:11;;;;;;;1.60;1.20;;;8.90;98.20;;;;;;4997493;28;20542;-80
2024/01/27 12:44:39;;;;;;;1.60;1.17;;;8.90;98.20;;;;;;5003770;28;20507;-79
2024/01/27 12:47:07;;;;;;;1.60;1.20;;;8.90;98.20;;;;;;4996650;28;20478;-79
2024/01/27 12:49:33;;;;;;;1.57;1.03;;;8.90;98.20;;;;;;5003274;28;20467;-80
2024/01/27 12:52:00;;;;;;;1.60;1.10;;;9.00;98.20;;;;;;5000492;28;20479;-80
2024/01/27 12:54:27;;;;;;;1.60;1.20;;;9.00;98.20;;;;;;5007612;28;20959;-79
2024/01/27 12:56:55;;;;;;;1.57;1.10;;;9.00;98.20;;;;;;4999769;28;20484;-79
2024/01/27 12:59:23;;;;;;;1.60;1.30;;;9.00;98.20;;;;;;5006776;28;20499;-79
2024/01/27 13:01:50;;;;;;;1.60;1.10;;;9.10;98.20;;;;;;4992396;28;20488;-79